createdAt,value
2018-06-11T00:01:37.253Z,28.73
2018-06-11T00:04:06.987Z,29.13
2018-06-11T00:06:36.637Z,27.27
2018-06-11T00:09:08.897Z,29.40
2018-06-11T00:11:38.597Z,28.83
2018-06-11T00:14:08.355Z,28.60
2018-06-11T00:16:38.040Z,28.57
2018-06-11T00:19:07.665Z,28.27
2018-06-11T00:21:37.368Z,28.57
2018-06-11T00:24:07.069Z,29.60
2018-06-11T00:26:36.729Z,27.53
2018-06-11T00:29:06.497Z,28.00
2018-06-11T00:31:36.203Z,28.43
2018-06-11T00:34:06.081Z,28.10
2018-06-11T00:36:35.700Z,31.33
2018-06-11T00:39:07.992Z,31.40
2018-06-11T00:41:37.633Z,29.30
2018-06-11T00:44:07.385Z,29.63
2018-06-11T00:46:36.992Z,30.53
2018-06-11T00:49:06.648Z,29.60
2018-06-11T00:51:36.316Z,29.50
2018-06-11T00:54:06.238Z,32.93
2018-06-11T00:56:35.877Z,29.97
2018-06-11T00:59:05.646Z,32.20
2018-06-11T01:01:34.956Z,29.47
2018-06-11T01:04:04.596Z,29.03
2018-06-11T01:06:34.301Z,29.70
2018-06-11T01:09:04.197Z,29.73
2018-06-11T01:11:33.493Z,31.27
2018-06-11T01:14:02.820Z,33.63
2018-06-11T01:16:32.497Z,31.63
2018-06-11T01:19:02.198Z,31.03
2018-06-11T01:21:31.843Z,32.73
2018-06-11T01:24:01.572Z,32.60
2018-06-11T01:26:31.264Z,34.03
2018-06-11T01:29:00.917Z,36.37
2018-06-11T01:31:30.548Z,37.33
2018-06-11T01:34:00.173Z,32.27
2018-06-11T01:36:29.846Z,34.60
2018-06-11T01:38:59.461Z,34.70
2018-06-11T01:41:29.092Z,35.00
2018-06-11T01:43:58.742Z,36.00
2018-06-11T01:46:28.033Z,33.97
2018-06-11T01:48:57.664Z,37.37
2018-06-11T01:51:27.059Z,35.47
2018-06-11T01:53:56.701Z,34.53
2018-06-11T01:56:26.373Z,35.23
2018-06-11T01:58:56.181Z,35.70
2018-06-11T02:01:25.838Z,33.13
2018-06-11T02:03:55.470Z,41.17
2018-06-11T02:06:25.100Z,37.00
2018-06-11T02:08:54.776Z,36.93
2018-06-11T02:11:24.406Z,35.20
2018-06-11T02:13:54.044Z,35.73
2018-06-11T02:16:23.691Z,36.73
2018-06-11T02:18:53.004Z,36.83
2018-06-11T02:21:22.289Z,37.27
2018-06-11T02:23:51.705Z,36.17
2018-06-11T02:26:21.007Z,35.53
2018-06-11T02:28:50.789Z,37.47
2018-06-11T02:31:20.444Z,37.87
2018-06-11T02:33:50.196Z,39.03
2018-06-11T02:36:19.885Z,41.37
2018-06-11T02:38:49.533Z,37.83
2018-06-11T02:41:19.219Z,38.13
2018-06-11T02:43:48.878Z,40.40
2018-06-11T02:46:18.584Z,38.43
2018-06-11T02:48:48.333Z,39.00
2018-06-11T02:51:17.745Z,41.10
2018-06-11T02:53:47.401Z,38.60
2018-06-11T02:56:17.064Z,39.47
2018-06-11T02:58:46.372Z,39.47
2018-06-11T03:01:16.959Z,38.80
2018-06-11T03:03:46.611Z,45.97
2018-06-11T03:06:15.927Z,41.43
2018-06-11T03:08:45.610Z,43.70
2018-06-11T03:11:15.232Z,39.07
2018-06-11T03:13:44.547Z,44.87
2018-06-11T03:16:14.289Z,42.70
2018-06-11T03:18:44.086Z,45.87
2018-06-11T03:21:13.868Z,45.50
2018-06-11T03:23:43.556Z,40.70
2018-06-11T03:26:13.157Z,42.50
2018-06-11T03:28:42.816Z,41.67
2018-06-11T03:31:12.353Z,42.27
2018-06-11T03:33:42.020Z,45.10
2018-06-11T03:36:11.662Z,46.57
2018-06-11T03:38:41.389Z,49.70
2018-06-11T03:41:11.090Z,47.57
2018-06-11T03:43:40.410Z,39.73
2018-06-11T03:46:10.079Z,44.47
2018-06-11T03:48:39.736Z,41.17
2018-06-11T03:51:09.358Z,42.03
2018-06-11T03:53:39.008Z,47.87
2018-06-11T03:56:08.719Z,38.30
2018-06-11T03:58:38.365Z,46.53
2018-06-11T04:01:08.037Z,42.27
2018-06-11T04:03:37.677Z,42.87
2018-06-11T04:06:07.056Z,46.00
2018-06-11T04:08:36.718Z,43.50
2018-06-11T04:11:06.541Z,44.10
2018-06-11T04:13:36.149Z,46.53
2018-06-11T04:16:05.873Z,40.80
2018-06-11T04:18:35.565Z,46.47
2018-06-11T04:21:05.204Z,43.80
2018-06-11T04:23:34.881Z,46.20
2018-06-11T04:26:04.364Z,42.30
2018-06-11T04:28:34.158Z,43.63
2018-06-11T04:31:03.981Z,45.13
2018-06-11T04:33:33.277Z,41.07
2018-06-11T04:36:02.895Z,42.60
2018-06-11T04:38:32.594Z,45.33
2018-06-11T04:41:02.257Z,45.40
2018-06-11T04:43:31.545Z,43.03
2018-06-11T04:46:01.216Z,42.77
2018-06-11T04:48:30.837Z,41.57
2018-06-11T04:51:00.683Z,43.20
2018-06-11T04:53:30.389Z,40.90
2018-06-11T04:56:00.152Z,43.57
2018-06-11T04:58:29.766Z,39.80
2018-06-11T05:00:59.565Z,47.40
2018-06-11T05:03:29.250Z,41.43
2018-06-11T05:05:59.061Z,49.00
2018-06-11T05:08:28.889Z,40.50
2018-06-11T05:10:58.253Z,39.73
2018-06-11T05:13:27.977Z,42.03
2018-06-11T05:15:57.636Z,41.13
2018-06-11T05:18:27.277Z,44.40
2018-06-11T05:20:56.981Z,42.53
2018-06-11T05:23:26.653Z,39.57
2018-06-11T05:25:56.299Z,37.60
2018-06-11T05:28:25.941Z,37.67
2018-06-11T05:30:55.579Z,39.10
2018-06-11T05:33:25.346Z,38.93
2018-06-11T05:35:55.017Z,37.67
2018-06-11T05:38:24.709Z,39.00
2018-06-11T05:40:54.380Z,39.47
2018-06-11T05:43:24.113Z,36.93
2018-06-11T05:45:53.793Z,38.03
2018-06-11T05:48:23.140Z,37.17
2018-06-11T05:50:52.905Z,35.47
2018-06-11T05:53:22.611Z,36.03
2018-06-11T05:55:52.246Z,35.00
2018-06-11T05:58:21.960Z,33.90
2018-06-11T06:00:51.599Z,33.40
2018-06-11T06:03:21.233Z,36.07
2018-06-11T06:05:50.845Z,35.83
2018-06-11T06:08:20.591Z,37.90
2018-06-11T06:10:49.912Z,34.60
2018-06-11T06:13:19.576Z,38.10
2018-06-11T06:15:49.193Z,36.77
2018-06-11T06:18:18.882Z,37.80
2018-06-11T06:20:48.492Z,34.27
2018-06-11T06:23:18.433Z,33.37
2018-06-11T06:25:48.111Z,34.33
2018-06-11T06:28:17.725Z,37.13
2018-06-11T06:30:47.453Z,35.87
2018-06-11T06:33:17.100Z,36.20
2018-06-11T06:35:46.757Z,35.23
2018-06-11T06:38:16.374Z,38.40
2018-06-11T06:40:46.045Z,34.17
2018-06-11T06:43:15.436Z,35.50
2018-06-11T06:45:45.294Z,33.40
2018-06-11T06:48:14.894Z,33.27
2018-06-11T06:50:44.531Z,34.27
2018-06-11T06:53:14.173Z,31.50
2018-06-11T06:55:43.783Z,30.23
2018-06-11T06:58:13.461Z,30.50
2018-06-11T07:00:43.068Z,30.47
2018-06-11T07:03:12.813Z,29.73
2018-06-11T07:05:42.437Z,28.37
2018-06-11T07:08:12.104Z,29.73
2018-06-11T07:10:41.853Z,26.37
2018-06-11T07:13:11.635Z,27.20
2018-06-11T07:15:41.262Z,24.77
2018-06-11T07:18:10.911Z,26.67
2018-06-11T07:20:40.680Z,25.73
2018-06-11T07:23:10.297Z,23.43
2018-06-11T07:25:39.968Z,22.60
2018-06-11T07:28:09.272Z,23.27
2018-06-11T07:30:38.637Z,21.37
2018-06-11T07:33:08.324Z,22.03
2018-06-11T07:35:37.993Z,24.07
2018-06-11T07:38:07.744Z,22.53
2018-06-11T07:40:37.429Z,22.77
2018-06-11T07:43:06.772Z,23.67
2018-06-11T07:45:36.433Z,24.53
2018-06-11T07:48:06.079Z,24.33
2018-06-11T07:50:35.853Z,24.43
2018-06-11T07:53:05.572Z,26.30
2018-06-11T07:55:35.265Z,23.83
2018-06-11T07:58:04.926Z,24.93
2018-06-11T08:00:35.574Z,25.67
2018-06-11T08:03:05.284Z,23.67
2018-06-11T08:05:34.981Z,22.73
2018-06-11T08:08:04.666Z,20.23
2018-06-11T08:10:34.387Z,21.53
2018-06-11T08:13:04.571Z,22.27
2018-06-11T08:15:34.266Z,21.80
2018-06-11T08:18:03.972Z,21.30
2018-06-11T08:20:33.766Z,21.90
2018-06-11T08:23:03.113Z,22.30
2018-06-11T08:25:32.783Z,20.00
2018-06-11T08:28:02.277Z,19.73
2018-06-11T08:30:32.049Z,21.87
2018-06-11T08:33:01.746Z,22.40
2018-06-11T08:35:31.493Z,23.37
2018-06-11T08:38:01.434Z,22.40
2018-06-11T08:40:31.103Z,22.30
2018-06-11T08:43:00.770Z,22.10
2018-06-11T08:45:30.244Z,21.73
2018-06-11T08:47:59.930Z,22.13
2018-06-11T08:50:29.648Z,24.50
2018-06-11T08:52:59.325Z,20.07
2018-06-11T08:55:28.645Z,21.37
2018-06-11T08:57:58.024Z,19.77
2018-06-11T09:00:27.935Z,19.73
2018-06-11T09:02:57.597Z,20.63
2018-06-11T09:05:27.255Z,20.40
2018-06-11T09:07:56.925Z,19.40
2018-06-11T09:10:26.674Z,20.77
2018-06-11T09:12:56.303Z,20.83
2018-06-11T09:15:26.046Z,20.83
2018-06-11T09:17:55.683Z,19.20
2018-06-11T09:20:25.353Z,18.13
2018-06-11T09:22:55.018Z,20.43
2018-06-11T09:25:24.689Z,20.17
2018-06-11T09:27:54.357Z,18.63
2018-06-11T09:30:24.089Z,20.30
2018-06-11T09:32:53.758Z,20.67
2018-06-11T09:35:23.505Z,21.70
2018-06-11T09:37:53.377Z,19.43
2018-06-11T09:40:23.039Z,20.60
2018-06-11T09:42:52.711Z,18.50
2018-06-11T09:45:22.348Z,18.93
2018-06-11T09:47:52.005Z,19.37
2018-06-11T09:50:21.723Z,17.90
2018-06-11T09:52:51.399Z,20.10
2018-06-11T09:55:21.089Z,20.83
2018-06-11T09:57:50.725Z,18.50
2018-06-11T10:00:25.548Z,17.77
2018-06-11T10:02:55.175Z,19.30
2018-06-11T10:05:24.858Z,18.83
2018-06-11T10:07:54.605Z,19.57
2018-06-11T10:10:24.267Z,17.13
2018-06-11T10:12:53.903Z,18.23
2018-06-11T10:15:23.773Z,20.73
2018-06-11T10:17:53.531Z,18.27
2018-06-11T10:20:23.173Z,17.33
2018-06-11T10:22:52.892Z,16.53
2018-06-11T10:25:22.569Z,15.87
2018-06-11T10:27:52.329Z,17.13
2018-06-11T10:30:21.623Z,16.03
2018-06-11T10:32:51.284Z,15.20
2018-06-11T10:35:20.918Z,16.27
2018-06-11T10:37:50.582Z,17.30
2018-06-11T10:40:20.298Z,16.10
2018-06-11T10:42:49.952Z,15.03
2018-06-11T10:45:19.610Z,15.77
2018-06-11T10:47:48.921Z,14.90
2018-06-11T10:50:18.576Z,15.90
2018-06-11T10:52:48.272Z,16.90
2018-06-11T10:55:17.946Z,15.27
2018-06-11T10:57:47.310Z,15.87
2018-06-11T11:00:16.965Z,15.33
2018-06-11T11:02:46.645Z,14.13
2018-06-11T11:05:16.376Z,13.43
2018-06-11T11:07:46.053Z,12.73
2018-06-11T11:10:15.753Z,12.03
2018-06-11T11:12:45.434Z,11.50
2018-06-11T11:15:14.793Z,12.13
2018-06-11T11:17:44.483Z,11.20
2018-06-11T11:20:14.147Z,12.43
2018-06-11T11:22:44.001Z,12.03
2018-06-11T11:25:13.804Z,10.93
2018-06-11T11:27:43.105Z,12.63
2018-06-11T11:30:12.886Z,9.77
2018-06-11T11:32:42.542Z,10.17
2018-06-11T11:35:12.494Z,13.43
2018-06-11T11:37:42.179Z,8.77
2018-06-11T11:40:11.911Z,10.53
2018-06-11T11:42:41.554Z,9.30
2018-06-11T11:45:11.423Z,11.00
2018-06-11T11:47:41.116Z,9.53
2018-06-11T11:50:10.819Z,9.80
2018-06-11T11:52:40.130Z,10.03
2018-06-11T11:55:09.456Z,9.40
2018-06-11T11:57:39.078Z,8.00
2018-06-11T12:00:08.988Z,8.40
2018-06-11T12:02:38.799Z,8.30
2018-06-11T12:05:08.478Z,8.57
2018-06-11T12:07:38.227Z,9.20
2018-06-11T12:10:07.603Z,9.30
2018-06-11T12:12:36.959Z,8.63
2018-06-11T12:15:06.674Z,10.13
2018-06-11T12:17:36.373Z,9.03
2018-06-11T12:20:06.141Z,9.20
2018-06-11T12:22:35.747Z,7.90
2018-06-11T12:25:05.407Z,7.40
2018-06-11T12:27:34.710Z,7.60
2018-06-11T12:30:04.419Z,9.80
2018-06-11T12:32:34.085Z,8.60
2018-06-11T12:35:03.762Z,9.13
2018-06-11T12:37:33.421Z,9.73
2018-06-11T12:40:03.174Z,11.00
2018-06-11T12:42:32.865Z,9.10
2018-06-11T12:45:02.182Z,9.10
2018-06-11T12:47:31.888Z,9.67
2018-06-11T12:50:02.069Z,9.33
2018-06-11T12:52:31.843Z,8.90
2018-06-11T12:55:01.482Z,10.57
2018-06-11T12:57:31.169Z,8.57
2018-06-11T13:00:00.861Z,8.63
2018-06-11T13:02:30.325Z,6.83
2018-06-11T13:05:00.076Z,8.50
2018-06-11T13:07:29.935Z,6.23
2018-06-11T13:09:59.592Z,7.60
2018-06-11T13:12:29.265Z,7.90
2018-06-11T13:14:59.005Z,7.50
2018-06-11T13:17:28.742Z,6.70
2018-06-11T13:19:58.445Z,6.50
2018-06-11T13:22:28.085Z,6.47
2018-06-11T13:24:57.743Z,6.70
2018-06-11T13:27:27.406Z,7.63
2018-06-11T13:29:56.898Z,6.97
2018-06-11T13:32:26.232Z,8.70
2018-06-11T13:34:55.881Z,7.73
2018-06-11T13:37:25.589Z,6.40
2018-06-11T13:39:55.254Z,6.10
2018-06-11T13:42:24.585Z,6.23
2018-06-11T13:44:54.270Z,5.70
2018-06-11T13:47:23.790Z,5.63
2018-06-11T13:49:53.408Z,6.60
2018-06-11T13:52:23.127Z,5.00
2018-06-11T13:54:52.818Z,6.10
2018-06-11T13:57:22.145Z,5.80
2018-06-11T13:59:51.848Z,7.83
2018-06-11T14:02:21.624Z,7.33
2018-06-11T14:04:51.257Z,7.10
2018-06-11T14:07:20.613Z,6.40
2018-06-11T14:09:50.237Z,6.57
2018-06-11T14:12:19.932Z,9.23
2018-06-11T14:14:49.560Z,7.80
2018-06-11T14:17:19.187Z,7.23
2018-06-11T14:19:48.824Z,8.50
2018-06-11T14:22:18.453Z,7.63
2018-06-11T14:24:47.841Z,6.73
2018-06-11T14:27:17.601Z,7.23
2018-06-11T14:29:47.397Z,11.40
2018-06-11T14:32:17.037Z,9.40
2018-06-11T14:34:46.711Z,7.07
2018-06-11T14:37:16.377Z,8.10
2018-06-11T14:39:46.094Z,7.93
2018-06-11T14:42:15.789Z,9.03
2018-06-11T14:44:45.582Z,7.40
2018-06-11T14:47:15.226Z,9.87
2018-06-11T14:49:44.928Z,7.20
2018-06-11T14:52:14.674Z,8.20
2018-06-11T14:54:44.437Z,10.80
2018-06-11T14:57:14.170Z,6.57
2018-06-11T14:59:43.921Z,8.03
2018-06-11T15:02:13.606Z,6.70
2018-06-11T15:04:43.280Z,8.70
2018-06-11T15:07:12.905Z,6.07
2018-06-11T15:09:42.758Z,6.50
2018-06-11T15:12:12.421Z,7.33
2018-06-11T15:14:42.153Z,9.97
2018-06-11T15:17:11.928Z,6.13
2018-06-11T15:19:41.267Z,7.43
2018-06-11T15:22:11.045Z,8.00
2018-06-11T15:24:40.748Z,8.13
2018-06-11T15:27:10.463Z,6.97
2018-06-11T15:29:40.121Z,6.63
2018-06-11T15:32:09.833Z,7.00
2018-06-11T15:34:39.605Z,7.17
2018-06-11T15:37:09.403Z,6.50
2018-06-11T15:39:39.093Z,6.67
2018-06-11T15:42:08.882Z,8.80
2018-06-11T15:44:38.665Z,8.97
2018-06-11T15:47:08.395Z,8.40
2018-06-11T15:49:38.061Z,8.33
2018-06-11T15:52:07.961Z,7.50
2018-06-11T15:54:37.656Z,7.13
2018-06-11T15:57:07.423Z,8.73
2018-06-11T15:59:37.130Z,7.60
2018-06-11T16:02:06.476Z,8.00
2018-06-11T16:04:36.178Z,7.83
2018-06-11T16:07:06.035Z,8.07
2018-06-11T16:09:35.694Z,8.80
2018-06-11T16:12:05.463Z,7.00
2018-06-11T16:14:34.750Z,7.40
2018-06-11T16:17:04.459Z,8.23
2018-06-11T16:19:34.126Z,7.20
2018-06-11T16:22:03.789Z,6.37
2018-06-11T16:24:33.426Z,6.97
2018-06-11T16:27:03.109Z,5.27
2018-06-11T16:29:32.936Z,7.43
2018-06-11T16:32:02.657Z,5.83
2018-06-11T16:34:32.365Z,6.80
2018-06-11T16:37:02.077Z,5.10
2018-06-11T16:39:31.713Z,8.07
2018-06-11T16:42:01.469Z,6.10
2018-06-11T16:44:30.803Z,5.97
2018-06-11T16:47:00.495Z,5.53
2018-06-11T16:49:30.272Z,6.40
2018-06-11T16:51:59.945Z,5.83
2018-06-11T16:54:29.662Z,5.50
2018-06-11T16:56:59.414Z,5.00
2018-06-11T16:59:29.093Z,5.10
2018-06-11T17:01:58.787Z,4.13
2018-06-11T17:04:28.570Z,5.33
2018-06-11T17:06:58.306Z,5.47
2018-06-11T17:09:27.965Z,8.80
2018-06-11T17:11:57.626Z,5.90
2018-06-11T17:14:27.333Z,5.20
2018-06-11T17:16:56.780Z,7.03
2018-06-11T17:19:27.561Z,5.10
2018-06-11T17:21:57.262Z,5.27
2018-06-11T17:24:27.006Z,6.97
2018-06-11T17:26:56.322Z,6.30
2018-06-11T17:29:25.761Z,5.63
2018-06-11T17:31:55.482Z,5.80
2018-06-11T17:34:25.145Z,5.93
2018-06-11T17:36:54.452Z,7.13
2018-06-11T17:39:23.828Z,6.13
2018-06-11T17:41:53.602Z,7.47
2018-06-11T17:44:23.311Z,5.37
2018-06-11T17:46:52.978Z,7.10
2018-06-11T17:49:22.669Z,6.37
2018-06-11T17:51:52.639Z,9.10
2018-06-11T17:54:22.005Z,5.50
2018-06-11T17:56:51.771Z,4.20
2018-06-11T17:59:21.479Z,8.33
2018-06-11T18:01:51.193Z,5.90
2018-06-11T18:04:20.995Z,5.13
2018-06-11T18:06:50.641Z,5.30
2018-06-11T18:09:20.312Z,4.83
2018-06-11T18:11:49.999Z,4.80
2018-06-11T18:14:19.653Z,7.30
2018-06-11T18:16:49.376Z,6.80
2018-06-11T18:19:19.102Z,8.33
2018-06-11T18:21:48.958Z,8.07
2018-06-11T18:24:18.702Z,5.20
2018-06-11T18:26:48.083Z,6.83
2018-06-11T18:29:17.843Z,5.10
2018-06-11T18:31:47.589Z,5.20
2018-06-11T18:34:17.721Z,7.20
2018-06-11T18:36:47.503Z,6.43
2018-06-11T18:39:17.306Z,5.07
2018-06-11T18:41:47.006Z,6.20
2018-06-11T18:44:16.409Z,5.77
2018-06-11T18:46:45.980Z,5.80
2018-06-11T18:49:15.653Z,8.00
2018-06-11T18:51:45.375Z,6.00
2018-06-11T18:54:15.055Z,7.30
2018-06-11T18:56:44.393Z,6.67
2018-06-11T18:59:14.109Z,7.63
2018-06-11T19:01:43.857Z,6.47
2018-06-11T19:04:13.588Z,5.53
2018-06-11T19:06:43.321Z,6.73
2018-06-11T19:09:12.697Z,5.23
2018-06-11T19:11:42.384Z,6.73
2018-06-11T19:14:12.063Z,5.43
2018-06-11T19:16:41.757Z,6.20
2018-06-11T19:19:11.081Z,5.57
2018-06-11T19:21:40.825Z,5.40
2018-06-11T19:24:10.594Z,5.70
2018-06-11T19:26:40.655Z,5.33
2018-06-11T19:29:10.321Z,6.13
2018-06-11T19:31:40.024Z,9.50
2018-06-11T19:34:09.927Z,7.03
2018-06-11T19:36:39.615Z,4.80
2018-06-11T19:39:09.349Z,5.23
2018-06-11T19:41:39.085Z,6.90
2018-06-11T19:44:08.768Z,6.80
2018-06-11T19:46:38.477Z,7.17
2018-06-11T19:49:08.212Z,7.53
2018-06-11T19:51:37.931Z,6.20
2018-06-11T19:54:07.701Z,7.27
2018-06-11T19:56:37.460Z,6.03
2018-06-11T19:59:07.303Z,6.10
2018-06-11T20:01:36.649Z,10.57
2018-06-11T20:04:06.461Z,6.70
2018-06-11T20:06:36.234Z,8.17
2018-06-11T20:09:09.159Z,6.97
2018-06-11T20:11:39.092Z,10.47
2018-06-11T20:14:08.901Z,7.03
2018-06-11T20:16:38.661Z,8.77
2018-06-11T20:19:08.369Z,6.77
2018-06-11T20:21:38.051Z,6.40
2018-06-11T20:24:07.939Z,8.13
2018-06-11T20:26:37.665Z,8.27
2018-06-11T20:29:07.470Z,7.27
2018-06-11T20:31:37.198Z,6.80
2018-06-11T20:34:06.900Z,7.70
2018-06-11T20:36:36.593Z,9.80
2018-06-11T20:39:08.572Z,11.40
2018-06-11T20:41:38.234Z,9.57
2018-06-11T20:44:07.943Z,8.03
2018-06-11T20:46:37.757Z,8.17
2018-06-11T20:49:07.490Z,7.07
2018-06-11T20:51:37.266Z,11.50
2018-06-11T20:54:07.069Z,7.30
2018-06-11T20:56:36.756Z,8.30
2018-06-11T20:59:06.158Z,6.97
2018-06-11T21:01:35.480Z,8.23
2018-06-11T21:04:05.192Z,9.00
2018-06-11T21:06:34.917Z,7.67
2018-06-11T21:09:06.747Z,7.60
2018-06-11T21:11:36.700Z,6.90
2018-06-11T21:14:06.450Z,7.70
2018-06-11T21:16:36.209Z,7.67
2018-06-11T21:19:05.880Z,8.77
2018-06-11T21:21:35.712Z,7.83
2018-06-11T21:24:05.532Z,8.43
2018-06-11T21:26:35.223Z,7.67
2018-06-11T21:29:05.003Z,12.27
2018-06-11T21:31:34.758Z,8.63
2018-06-11T21:34:04.507Z,8.73
2018-06-11T21:36:34.282Z,8.50
2018-06-11T21:39:04.426Z,8.30
2018-06-11T21:41:33.826Z,10.77
2018-06-11T21:44:03.607Z,8.87
2018-06-11T21:46:33.330Z,8.90
2018-06-11T21:49:02.976Z,9.37
2018-06-11T21:51:32.303Z,13.23
2018-06-11T21:54:01.969Z,14.00
2018-06-11T21:56:31.679Z,9.63
2018-06-11T21:59:01.366Z,9.97
2018-06-11T22:01:31.187Z,9.80
2018-06-11T22:04:00.891Z,14.80
2018-06-11T22:06:30.615Z,11.10
2018-06-11T22:09:00.234Z,9.10
2018-06-11T22:11:29.950Z,9.70
2018-06-11T22:13:59.616Z,11.20
2018-06-11T22:16:29.396Z,13.00
2018-06-11T22:18:59.157Z,11.80
2018-06-11T22:21:28.843Z,11.23
2018-06-11T22:23:58.119Z,12.13
2018-06-11T22:26:27.855Z,12.33
2018-06-11T22:28:57.554Z,14.73
2018-06-11T22:31:27.249Z,17.37
2018-06-11T22:33:56.985Z,13.10
2018-06-11T22:36:26.640Z,11.93
2018-06-11T22:38:56.345Z,13.00
2018-06-11T22:41:25.700Z,14.90
2018-06-11T22:43:55.135Z,14.60
2018-06-11T22:46:25.046Z,12.47
2018-06-11T22:48:54.992Z,11.77
2018-06-11T22:51:25.059Z,14.60
2018-06-11T22:53:54.975Z,14.00
2018-06-11T22:56:24.924Z,12.30
2018-06-11T22:58:54.783Z,12.90
2018-06-11T23:01:24.910Z,13.33
2018-06-11T23:03:54.661Z,12.87
2018-06-11T23:06:24.802Z,12.70
2018-06-11T23:08:54.634Z,13.03
2018-06-11T23:11:24.717Z,12.87
2018-06-11T23:13:54.569Z,17.43
2018-06-11T23:16:24.210Z,13.90
2018-06-11T23:18:54.456Z,13.10
2018-06-11T23:21:24.457Z,13.57
2018-06-11T23:23:54.324Z,14.60
2018-06-11T23:26:24.346Z,14.33
2018-06-11T23:28:54.079Z,13.60
2018-06-11T23:31:23.615Z,14.43
2018-06-11T23:33:53.532Z,14.17
2018-06-11T23:36:23.526Z,13.40
2018-06-11T23:38:53.136Z,13.23
2018-06-11T23:41:22.714Z,14.47
2018-06-11T23:43:52.789Z,12.50
2018-06-11T23:46:22.683Z,12.50
2018-06-11T23:48:52.783Z,13.27
2018-06-11T23:51:22.575Z,15.53
2018-06-11T23:53:52.485Z,11.23
2018-06-11T23:56:22.303Z,13.03
2018-06-11T23:58:52.005Z,9.90
